sensor_id;sensor_type;location;lat;lon;timestamp;P1;durP1;ratioP1;P2;durP2;ratioP2
75218;SDS011;63801;49.414;19.474;2022-10-28T00:00:11;347.70;;;52.75;;
75218;SDS011;63801;49.414;19.474;2022-10-28T00:02:12;383.30;;;54.70;;
75218;SDS011;63801;49.414;19.474;2022-10-28T00:04:12;424.67;;;55.30;;
75218;SDS011;63801;49.414;19.474;2022-10-28T00:06:14;421.10;;;56.35;;
75218;SDS011;63801;49.414;19.474;2022-10-28T00:08:24;370.65;;;56.42;;
75218;SDS011;63801;49.414;19.474;2022-10-28T00:10:25;363.83;;;54.65;;
75218;SDS011;63801;49.414;19.474;2022-10-28T00:12:25;363.95;;;55.40;;
75218;SDS011;63801;49.414;19.474;2022-10-28T00:14:25;346.33;;;57.42;;
75218;SDS011;63801;49.414;19.474;2022-10-28T00:16:26;363.90;;;61.25;;
75218;SDS011;63801;49.414;19.474;2022-10-28T00:18:31;285.58;;;53.03;;
75218;SDS011;63801;49.414;19.474;2022-10-28T00:20:31;305.80;;;52.67;;
75218;SDS011;63801;49.414;19.474;2022-10-28T00:22:32;302.02;;;42.95;;
75218;SDS011;63801;49.414;19.474;2022-10-28T00:24:32;496.75;;;38.47;;
75218;SDS011;63801;49.414;19.474;2022-10-28T00:26:34;398.10;;;30.58;;
75218;SDS011;63801;49.414;19.474;2022-10-28T00:28:43;452.25;;;37.17;;
75218;SDS011;63801;49.414;19.474;2022-10-28T00:30:45;246.27;;;28.77;;
75218;SDS011;63801;49.414;19.474;2022-10-28T00:32:45;545.40;;;41.97;;
75218;SDS011;63801;49.414;19.474;2022-10-28T00:34:46;532.55;;;43.30;;
75218;SDS011;63801;49.414;19.474;2022-10-28T00:36:47;644.90;;;45.75;;
75218;SDS011;63801;49.414;19.474;2022-10-28T00:38:48;435.60;;;38.58;;
75218;SDS011;63801;49.414;19.474;2022-10-28T00:40:49;517.73;;;38.80;;
75218;SDS011;63801;49.414;19.474;2022-10-28T00:42:49;373.25;;;32.33;;
75218;SDS011;63801;49.414;19.474;2022-10-28T00:45:00;384.77;;;29.42;;
75218;SDS011;63801;49.414;19.474;2022-10-28T00:47:01;333.95;;;28.55;;
75218;SDS011;63801;49.414;19.474;2022-10-28T00:49:17;287.92;;;26.45;;
75218;SDS011;63801;49.414;19.474;2022-10-28T00:51:21;256.40;;;27.00;;
75218;SDS011;63801;49.414;19.474;2022-10-28T00:53:27;134.25;;;24.35;;
75218;SDS011;63801;49.414;19.474;2022-10-28T00:55:30;181.50;;;23.50;;
75218;SDS011;63801;49.414;19.474;2022-10-28T00:57:35;268.05;;;28.67;;
75218;SDS011;63801;49.414;19.474;2022-10-28T00:59:37;127.78;;;25.17;;
75218;SDS011;63801;49.414;19.474;2022-10-28T01:01:41;144.70;;;26.08;;
75218;SDS011;63801;49.414;19.474;2022-10-28T01:03:41;169.35;;;27.20;;
75218;SDS011;63801;49.414;19.474;2022-10-28T01:05:43;104.25;;;20.83;;
75218;SDS011;63801;49.414;19.474;2022-10-28T01:07:47;121.38;;;25.23;;
75218;SDS011;63801;49.414;19.474;2022-10-28T01:09:48;83.43;;;24.92;;
75218;SDS011;63801;49.414;19.474;2022-10-28T01:16:28;288.42;;;26.98;;
75218;SDS011;63801;49.414;19.474;2022-10-28T01:20:56;412.67;;;31.17;;
75218;SDS011;63801;49.414;19.474;2022-10-28T01:33:42;511.35;;;33.13;;
75218;SDS011;63801;49.414;19.474;2022-10-28T01:35:52;439.33;;;32.35;;
75218;SDS011;63801;49.414;19.474;2022-10-28T01:42:52;427.38;;;27.77;;
75218;SDS011;63801;49.414;19.474;2022-10-28T01:47:23;405.08;;;26.38;;
75218;SDS011;63801;49.414;19.474;2022-10-28T01:51:48;388.30;;;25.95;;
75218;SDS011;63801;49.414;19.474;2022-10-28T01:53:54;447.73;;;26.95;;
75218;SDS011;63801;49.414;19.474;2022-10-28T01:55:58;375.20;;;25.40;;
75218;SDS011;63801;49.414;19.474;2022-10-28T01:58:01;276.30;;;22.75;;
75218;SDS011;63801;49.414;19.474;2022-10-28T02:00:04;306.95;;;20.85;;
75218;SDS011;63801;49.414;19.474;2022-10-28T02:02:04;360.73;;;23.67;;
75218;SDS011;63801;49.414;19.474;2022-10-28T02:04:05;300.52;;;19.48;;
75218;SDS011;63801;49.414;19.474;2022-10-28T02:06:06;415.42;;;25.05;;
75218;SDS011;63801;49.414;19.474;2022-10-28T02:10:20;212.77;;;17.38;;
75218;SDS011;63801;49.414;19.474;2022-10-28T02:12:36;643.60;;;39.05;;
75218;SDS011;63801;49.414;19.474;2022-10-28T02:17:01;490.58;;;27.67;;
75218;SDS011;63801;49.414;19.474;2022-10-28T02:24:23;189.02;;;16.30;;
75218;SDS011;63801;49.414;19.474;2022-10-28T02:26:33;260.70;;;17.27;;
75218;SDS011;63801;49.414;19.474;2022-10-28T02:28:45;395.45;;;22.10;;
75218;SDS011;63801;49.414;19.474;2022-10-28T02:30:54;266.33;;;20.80;;
75218;SDS011;63801;49.414;19.474;2022-10-28T02:33:02;178.27;;;21.67;;
75218;SDS011;63801;49.414;19.474;2022-10-28T02:35:06;113.90;;;23.55;;
75218;SDS011;63801;49.414;19.474;2022-10-28T02:37:16;166.73;;;23.13;;
75218;SDS011;63801;49.414;19.474;2022-10-28T02:39:23;130.13;;;20.65;;
75218;SDS011;63801;49.414;19.474;2022-10-28T02:41:49;131.02;;;19.40;;
75218;SDS011;63801;49.414;19.474;2022-10-28T02:43:54;212.13;;;19.98;;
75218;SDS011;63801;49.414;19.474;2022-10-28T02:45:58;166.90;;;17.17;;
75218;SDS011;63801;49.414;19.474;2022-10-28T02:48:04;268.63;;;21.60;;
75218;SDS011;63801;49.414;19.474;2022-10-28T02:50:11;483.92;;;29.42;;
75218;SDS011;63801;49.414;19.474;2022-10-28T02:52:16;409.67;;;25.85;;
75218;SDS011;63801;49.414;19.474;2022-10-28T02:54:23;442.08;;;25.05;;
75218;SDS011;63801;49.414;19.474;2022-10-28T02:56:29;416.52;;;24.85;;
75218;SDS011;63801;49.414;19.474;2022-10-28T02:58:37;351.50;;;20.75;;
75218;SDS011;63801;49.414;19.474;2022-10-28T03:00:42;278.73;;;20.48;;
75218;SDS011;63801;49.414;19.474;2022-10-28T03:02:43;297.00;;;19.58;;
75218;SDS011;63801;49.414;19.474;2022-10-28T03:04:44;492.50;;;27.67;;
75218;SDS011;63801;49.414;19.474;2022-10-28T03:06:44;373.15;;;22.55;;
75218;SDS011;63801;49.414;19.474;2022-10-28T03:08:44;287.50;;;19.00;;
75218;SDS011;63801;49.414;19.474;2022-10-28T03:10:45;287.30;;;18.05;;
75218;SDS011;63801;49.414;19.474;2022-10-28T03:12:45;245.93;;;17.92;;
75218;SDS011;63801;49.414;19.474;2022-10-28T03:14:45;395.45;;;22.80;;
75218;SDS011;63801;49.414;19.474;2022-10-28T03:16:45;233.25;;;16.70;;
75218;SDS011;63801;49.414;19.474;2022-10-28T03:18:46;333.63;;;19.27;;
75218;SDS011;63801;49.414;19.474;2022-10-28T03:20:46;251.77;;;17.00;;
75218;SDS011;63801;49.414;19.474;2022-10-28T03:22:46;288.88;;;18.48;;
75218;SDS011;63801;49.414;19.474;2022-10-28T03:24:47;434.95;;;22.88;;
75218;SDS011;63801;49.414;19.474;2022-10-28T03:26:47;283.75;;;18.95;;
75218;SDS011;63801;49.414;19.474;2022-10-28T03:28:47;336.40;;;20.50;;
75218;SDS011;63801;49.414;19.474;2022-10-28T03:30:47;418.35;;;23.98;;
75218;SDS011;63801;49.414;19.474;2022-10-28T03:32:48;304.63;;;19.27;;
75218;SDS011;63801;49.414;19.474;2022-10-28T03:34:48;572.65;;;30.67;;
75218;SDS011;63801;49.414;19.474;2022-10-28T03:36:48;607.33;;;35.63;;
75218;SDS011;63801;49.414;19.474;2022-10-28T03:38:49;607.75;;;36.25;;
75218;SDS011;63801;49.414;19.474;2022-10-28T03:40:49;678.15;;;38.33;;
75218;SDS011;63801;49.414;19.474;2022-10-28T03:42:50;658.83;;;38.50;;
75218;SDS011;63801;49.414;19.474;2022-10-28T03:44:50;554.83;;;34.75;;
75218;SDS011;63801;49.414;19.474;2022-10-28T03:46:50;375.00;;;23.20;;
75218;SDS011;63801;49.414;19.474;2022-10-28T03:48:51;285.48;;;19.50;;
75218;SDS011;63801;49.414;19.474;2022-10-28T03:50:57;255.18;;;17.20;;
75218;SDS011;63801;49.414;19.474;2022-10-28T03:52:57;188.07;;;15.20;;
75218;SDS011;63801;49.414;19.474;2022-10-28T03:54:58;96.47;;;14.98;;
75218;SDS011;63801;49.414;19.474;2022-10-28T03:56:58;133.18;;;17.13;;
75218;SDS011;63801;49.414;19.474;2022-10-28T03:59:01;201.45;;;22.60;;
75218;SDS011;63801;49.414;19.474;2022-10-28T04:01:02;192.57;;;23.02;;
75218;SDS011;63801;49.414;19.474;2022-10-28T04:03:03;167.50;;;23.27;;
75218;SDS011;63801;49.414;19.474;2022-10-28T04:05:03;266.10;;;25.83;;
75218;SDS011;63801;49.414;19.474;2022-10-28T04:07:04;98.05;;;19.40;;
75218;SDS011;63801;49.414;19.474;2022-10-28T04:09:04;123.50;;;23.95;;
75218;SDS011;63801;49.414;19.474;2022-10-28T04:11:04;105.38;;;19.77;;
75218;SDS011;63801;49.414;19.474;2022-10-28T04:13:05;249.68;;;23.08;;
75218;SDS011;63801;49.414;19.474;2022-10-28T04:15:06;130.00;;;19.55;;
75218;SDS011;63801;49.414;19.474;2022-10-28T04:17:06;197.27;;;21.08;;
75218;SDS011;63801;49.414;19.474;2022-10-28T04:19:07;250.80;;;20.63;;
75218;SDS011;63801;49.414;19.474;2022-10-28T04:21:07;137.27;;;15.95;;
75218;SDS011;63801;49.414;19.474;2022-10-28T04:23:07;160.68;;;18.75;;
75218;SDS011;63801;49.414;19.474;2022-10-28T04:25:10;219.80;;;21.92;;
75218;SDS011;63801;49.414;19.474;2022-10-28T04:27:10;194.32;;;19.63;;
75218;SDS011;63801;49.414;19.474;2022-10-28T04:29:10;235.40;;;21.40;;
75218;SDS011;63801;49.414;19.474;2022-10-28T04:31:11;251.10;;;20.17;;
75218;SDS011;63801;49.414;19.474;2022-10-28T04:33:11;153.80;;;18.02;;
75218;SDS011;63801;49.414;19.474;2022-10-28T04:35:12;250.90;;;22.52;;
75218;SDS011;63801;49.414;19.474;2022-10-28T04:37:12;213.75;;;20.92;;
75218;SDS011;63801;49.414;19.474;2022-10-28T04:39:13;160.30;;;18.98;;
75218;SDS011;63801;49.414;19.474;2022-10-28T04:41:13;308.52;;;26.23;;
75218;SDS011;63801;49.414;19.474;2022-10-28T04:43:14;391.48;;;52.58;;
75218;SDS011;63801;49.414;19.474;2022-10-28T04:45:15;400.42;;;38.75;;
75218;SDS011;63801;49.414;19.474;2022-10-28T04:47:15;307.60;;;26.65;;
75218;SDS011;63801;49.414;19.474;2022-10-28T04:49:16;237.75;;;22.60;;
75218;SDS011;63801;49.414;19.474;2022-10-28T04:51:16;232.57;;;26.58;;
75218;SDS011;63801;49.414;19.474;2022-10-28T04:53:17;302.25;;;28.90;;
75218;SDS011;63801;49.414;19.474;2022-10-28T04:55:17;331.58;;;26.23;;
75218;SDS011;63801;49.414;19.474;2022-10-28T04:57:19;364.27;;;28.92;;
75218;SDS011;63801;49.414;19.474;2022-10-28T04:59:19;251.77;;;26.98;;
75218;SDS011;63801;49.414;19.474;2022-10-28T05:01:19;289.95;;;28.20;;
75218;SDS011;63801;49.414;19.474;2022-10-28T05:03:20;368.88;;;33.83;;
75218;SDS011;63801;49.414;19.474;2022-10-28T05:05:20;185.63;;;29.13;;
75218;SDS011;63801;49.414;19.474;2022-10-28T05:07:21;192.70;;;28.38;;
75218;SDS011;63801;49.414;19.474;2022-10-28T05:09:21;160.23;;;24.75;;
75218;SDS011;63801;49.414;19.474;2022-10-28T05:11:21;276.33;;;24.25;;
75218;SDS011;63801;49.414;19.474;2022-10-28T05:13:21;403.90;;;28.67;;
75218;SDS011;63801;49.414;19.474;2022-10-28T05:15:22;419.45;;;29.30;;
75218;SDS011;63801;49.414;19.474;2022-10-28T05:17:22;540.97;;;34.15;;
75218;SDS011;63801;49.414;19.474;2022-10-28T05:19:22;389.27;;;28.30;;
75218;SDS011;63801;49.414;19.474;2022-10-28T05:21:22;392.13;;;41.53;;
75218;SDS011;63801;49.414;19.474;2022-10-28T05:23:23;476.70;;;47.05;;
75218;SDS011;63801;49.414;19.474;2022-10-28T05:25:23;508.23;;;38.10;;
75218;SDS011;63801;49.414;19.474;2022-10-28T05:27:24;353.48;;;27.40;;
75218;SDS011;63801;49.414;19.474;2022-10-28T05:29:25;284.23;;;22.73;;
75218;SDS011;63801;49.414;19.474;2022-10-28T05:31:25;345.35;;;25.33;;
75218;SDS011;63801;49.414;19.474;2022-10-28T05:33:25;272.98;;;22.42;;
75218;SDS011;63801;49.414;19.474;2022-10-28T05:35:25;219.73;;;26.95;;
75218;SDS011;63801;49.414;19.474;2022-10-28T05:37:26;302.85;;;28.45;;
75218;SDS011;63801;49.414;19.474;2022-10-28T05:39:26;375.65;;;27.33;;
75218;SDS011;63801;49.414;19.474;2022-10-28T05:41:27;398.40;;;29.83;;
75218;SDS011;63801;49.414;19.474;2022-10-28T05:43:27;204.32;;;21.42;;
75218;SDS011;63801;49.414;19.474;2022-10-28T05:45:27;239.52;;;20.88;;
75218;SDS011;63801;49.414;19.474;2022-10-28T05:47:28;386.58;;;25.58;;
75218;SDS011;63801;49.414;19.474;2022-10-28T05:49:28;251.77;;;20.52;;
75218;SDS011;63801;49.414;19.474;2022-10-28T05:51:29;380.92;;;26.50;;
75218;SDS011;63801;49.414;19.474;2022-10-28T05:53:29;403.35;;;24.92;;
75218;SDS011;63801;49.414;19.474;2022-10-28T05:55:29;409.90;;;26.52;;
75218;SDS011;63801;49.414;19.474;2022-10-28T05:57:32;411.98;;;27.15;;
75218;SDS011;63801;49.414;19.474;2022-10-28T05:59:34;525.30;;;31.88;;
75218;SDS011;63801;49.414;19.474;2022-10-28T06:01:34;381.60;;;24.52;;
75218;SDS011;63801;49.414;19.474;2022-10-28T06:03:34;510.98;;;30.90;;
75218;SDS011;63801;49.414;19.474;2022-10-28T06:05:35;435.02;;;27.13;;
75218;SDS011;63801;49.414;19.474;2022-10-28T06:07:39;504.63;;;34.83;;
75218;SDS011;63801;49.414;19.474;2022-10-28T06:09:40;357.33;;;24.30;;
75218;SDS011;63801;49.414;19.474;2022-10-28T06:11:40;389.92;;;26.58;;
75218;SDS011;63801;49.414;19.474;2022-10-28T06:13:41;399.92;;;30.63;;
75218;SDS011;63801;49.414;19.474;2022-10-28T06:15:41;549.10;;;46.88;;
75218;SDS011;63801;49.414;19.474;2022-10-28T06:17:41;501.10;;;41.47;;
75218;SDS011;63801;49.414;19.474;2022-10-28T06:19:42;571.90;;;38.03;;
75218;SDS011;63801;49.414;19.474;2022-10-28T06:21:42;623.42;;;37.42;;
75218;SDS011;63801;49.414;19.474;2022-10-28T06:23:42;557.97;;;39.92;;
75218;SDS011;63801;49.414;19.474;2022-10-28T06:25:43;523.42;;;37.70;;
75218;SDS011;63801;49.414;19.474;2022-10-28T06:27:43;529.47;;;35.60;;
75218;SDS011;63801;49.414;19.474;2022-10-28T06:29:43;354.80;;;26.90;;
75218;SDS011;63801;49.414;19.474;2022-10-28T06:31:44;463.88;;;30.23;;
75218;SDS011;63801;49.414;19.474;2022-10-28T06:33:44;465.55;;;27.38;;
75218;SDS011;63801;49.414;19.474;2022-10-28T06:35:44;552.78;;;32.58;;
75218;SDS011;63801;49.414;19.474;2022-10-28T06:37:45;382.77;;;27.60;;
75218;SDS011;63801;49.414;19.474;2022-10-28T06:39:45;487.98;;;33.00;;
75218;SDS011;63801;49.414;19.474;2022-10-28T06:41:50;610.72;;;33.05;;
75218;SDS011;63801;49.414;19.474;2022-10-28T06:43:50;468.38;;;31.40;;
75218;SDS011;63801;49.414;19.474;2022-10-28T06:45:51;571.42;;;30.95;;
75218;SDS011;63801;49.414;19.474;2022-10-28T06:47:59;553.90;;;30.90;;
75218;SDS011;63801;49.414;19.474;2022-10-28T06:50:01;336.13;;;19.52;;
75218;SDS011;63801;49.414;19.474;2022-10-28T06:52:01;224.30;;;16.88;;
75218;SDS011;63801;49.414;19.474;2022-10-28T06:54:02;413.92;;;21.70;;
75218;SDS011;63801;49.414;19.474;2022-10-28T06:56:02;399.30;;;21.65;;
75218;SDS011;63801;49.414;19.474;2022-10-28T06:58:03;486.20;;;25.83;;
75218;SDS011;63801;49.414;19.474;2022-10-28T07:00:03;473.00;;;23.85;;
75218;SDS011;63801;49.414;19.474;2022-10-28T07:02:04;355.40;;;25.23;;
75218;SDS011;63801;49.414;19.474;2022-10-28T07:04:05;427.90;;;25.25;;
75218;SDS011;63801;49.414;19.474;2022-10-28T07:06:06;367.08;;;25.35;;
75218;SDS011;63801;49.414;19.474;2022-10-28T07:08:06;472.88;;;28.92;;
75218;SDS011;63801;49.414;19.474;2022-10-28T07:10:06;425.45;;;23.67;;
75218;SDS011;63801;49.414;19.474;2022-10-28T07:12:07;236.70;;;16.58;;
75218;SDS011;63801;49.414;19.474;2022-10-28T07:14:07;111.30;;;14.15;;
75218;SDS011;63801;49.414;19.474;2022-10-28T07:16:08;228.07;;;17.00;;
75218;SDS011;63801;49.414;19.474;2022-10-28T07:18:08;214.68;;;17.08;;
75218;SDS011;63801;49.414;19.474;2022-10-28T07:20:09;108.80;;;12.30;;
75218;SDS011;63801;49.414;19.474;2022-10-28T07:22:10;198.80;;;12.43;;
75218;SDS011;63801;49.414;19.474;2022-10-28T07:24:10;194.77;;;11.32;;
75218;SDS011;63801;49.414;19.474;2022-10-28T07:26:10;142.32;;;14.50;;
75218;SDS011;63801;49.414;19.474;2022-10-28T07:28:11;98.22;;;8.90;;
75218;SDS011;63801;49.414;19.474;2022-10-28T07:30:11;88.65;;;10.45;;
75218;SDS011;63801;49.414;19.474;2022-10-28T07:32:11;56.00;;;9.27;;
75218;SDS011;63801;49.414;19.474;2022-10-28T07:34:12;21.00;;;9.18;;
75218;SDS011;63801;49.414;19.474;2022-10-28T07:36:12;14.55;;;8.40;;
75218;SDS011;63801;49.414;19.474;2022-10-28T07:38:12;21.15;;;10.45;;
75218;SDS011;63801;49.414;19.474;2022-10-28T07:40:13;38.63;;;14.98;;
75218;SDS011;63801;49.414;19.474;2022-10-28T07:42:13;61.42;;;15.57;;
75218;SDS011;63801;49.414;19.474;2022-10-28T07:44:14;62.00;;;17.98;;
75218;SDS011;63801;49.414;19.474;2022-10-28T07:46:14;93.55;;;25.30;;
75218;SDS011;63801;49.414;19.474;2022-10-28T07:48:15;98.97;;;21.38;;
75218;SDS011;63801;49.414;19.474;2022-10-28T07:50:16;99.72;;;20.77;;
75218;SDS011;63801;49.414;19.474;2022-10-28T07:52:16;72.68;;;18.25;;
75218;SDS011;63801;49.414;19.474;2022-10-28T07:54:16;57.25;;;19.60;;
75218;SDS011;63801;49.414;19.474;2022-10-28T07:56:17;45.65;;;20.55;;
75218;SDS011;63801;49.414;19.474;2022-10-28T07:58:17;54.25;;;22.85;;
75218;SDS011;63801;49.414;19.474;2022-10-28T08:00:17;72.93;;;30.90;;
75218;SDS011;63801;49.414;19.474;2022-10-28T08:02:20;64.78;;;27.27;;
75218;SDS011;63801;49.414;19.474;2022-10-28T08:04:21;57.92;;;21.38;;
75218;SDS011;63801;49.414;19.474;2022-10-28T08:06:22;37.00;;;18.27;;
75218;SDS011;63801;49.414;19.474;2022-10-28T08:08:22;28.23;;;14.48;;
75218;SDS011;63801;49.414;19.474;2022-10-28T08:10:22;27.80;;;15.18;;
75218;SDS011;63801;49.414;19.474;2022-10-28T08:12:23;27.30;;;11.70;;
75218;SDS011;63801;49.414;19.474;2022-10-28T08:14:23;65.03;;;25.70;;
75218;SDS011;63801;49.414;19.474;2022-10-28T08:16:23;69.40;;;25.63;;
75218;SDS011;63801;49.414;19.474;2022-10-28T08:18:24;61.85;;;25.70;;
75218;SDS011;63801;49.414;19.474;2022-10-28T08:20:24;72.88;;;28.52;;
75218;SDS011;63801;49.414;19.474;2022-10-28T08:22:24;72.10;;;29.85;;
75218;SDS011;63801;49.414;19.474;2022-10-28T08:24:25;54.47;;;22.65;;
75218;SDS011;63801;49.414;19.474;2022-10-28T08:26:25;31.30;;;14.90;;
75218;SDS011;63801;49.414;19.474;2022-10-28T08:28:25;29.50;;;14.55;;
75218;SDS011;63801;49.414;19.474;2022-10-28T08:30:26;28.63;;;14.55;;
75218;SDS011;63801;49.414;19.474;2022-10-28T08:32:26;19.55;;;10.50;;
75218;SDS011;63801;49.414;19.474;2022-10-28T08:34:26;15.85;;;8.48;;
75218;SDS011;63801;49.414;19.474;2022-10-28T08:36:28;13.07;;;7.63;;
75218;SDS011;63801;49.414;19.474;2022-10-28T08:38:28;14.15;;;6.70;;
75218;SDS011;63801;49.414;19.474;2022-10-28T08:43:23;10.82;;;4.80;;
75218;SDS011;63801;49.414;19.474;2022-10-28T08:50:26;9.90;;;4.38;;
75218;SDS011;63801;49.414;19.474;2022-10-28T08:54:50;9.35;;;3.47;;
75218;SDS011;63801;49.414;19.474;2022-10-28T08:56:54;7.00;;;3.42;;
75218;SDS011;63801;49.414;19.474;2022-10-28T08:58:59;9.10;;;3.63;;
75218;SDS011;63801;49.414;19.474;2022-10-28T09:01:02;7.15;;;3.67;;
75218;SDS011;63801;49.414;19.474;2022-10-28T09:03:13;8.98;;;3.25;;
75218;SDS011;63801;49.414;19.474;2022-10-28T09:05:21;6.00;;;3.05;;
75218;SDS011;63801;49.414;19.474;2022-10-28T09:07:23;9.02;;;3.75;;
75218;SDS011;63801;49.414;19.474;2022-10-28T09:09:24;6.60;;;4.00;;
75218;SDS011;63801;49.414;19.474;2022-10-28T09:14:09;6.50;;;3.42;;
75218;SDS011;63801;49.414;19.474;2022-10-28T09:16:18;9.45;;;3.85;;
75218;SDS011;63801;49.414;19.474;2022-10-28T09:20:53;8.63;;;4.45;;
75218;SDS011;63801;49.414;19.474;2022-10-28T09:22:56;9.90;;;3.95;;
75218;SDS011;63801;49.414;19.474;2022-10-28T09:24:59;6.30;;;3.63;;
75218;SDS011;63801;49.414;19.474;2022-10-28T09:27:05;12.80;;;4.10;;
75218;SDS011;63801;49.414;19.474;2022-10-28T09:31:22;7.75;;;3.80;;
75218;SDS011;63801;49.414;19.474;2022-10-28T09:35:39;10.27;;;4.00;;
75218;SDS011;63801;49.414;19.474;2022-10-28T09:37:44;7.45;;;3.75;;
75218;SDS011;63801;49.414;19.474;2022-10-28T09:39:55;12.70;;;4.15;;
75218;SDS011;63801;49.414;19.474;2022-10-28T09:42:00;8.63;;;3.33;;
75218;SDS011;63801;49.414;19.474;2022-10-28T09:44:09;7.28;;;3.30;;
75218;SDS011;63801;49.414;19.474;2022-10-28T09:46:23;7.00;;;3.55;;
75218;SDS011;63801;49.414;19.474;2022-10-28T09:50:30;7.85;;;3.13;;
75218;SDS011;63801;49.414;19.474;2022-10-28T09:52:33;6.78;;;3.03;;
75218;SDS011;63801;49.414;19.474;2022-10-28T09:54:50;8.50;;;3.17;;
75218;SDS011;63801;49.414;19.474;2022-10-28T09:56:51;7.05;;;3.13;;
75218;SDS011;63801;49.414;19.474;2022-10-28T09:58:52;8.70;;;3.10;;
75218;SDS011;63801;49.414;19.474;2022-10-28T10:00:54;8.73;;;3.30;;
75218;SDS011;63801;49.414;19.474;2022-10-28T10:02:55;11.15;;;4.20;;
75218;SDS011;63801;49.414;19.474;2022-10-28T10:04:57;9.75;;;3.03;;
75218;SDS011;63801;49.414;19.474;2022-10-28T10:09:10;7.97;;;2.80;;
75218;SDS011;63801;49.414;19.474;2022-10-28T10:11:33;8.73;;;3.20;;
75218;SDS011;63801;49.414;19.474;2022-10-28T10:13:38;8.13;;;3.03;;
75218;SDS011;63801;49.414;19.474;2022-10-28T10:15:48;9.32;;;2.97;;
75218;SDS011;63801;49.414;19.474;2022-10-28T10:17:52;9.63;;;2.67;;
75218;SDS011;63801;49.414;19.474;2022-10-28T10:20:00;6.03;;;2.97;;
75218;SDS011;63801;49.414;19.474;2022-10-28T10:22:03;7.88;;;3.40;;
75218;SDS011;63801;49.414;19.474;2022-10-28T10:24:20;7.00;;;2.70;;
75218;SDS011;63801;49.414;19.474;2022-10-28T10:26:33;11.07;;;2.60;;
75218;SDS011;63801;49.414;19.474;2022-10-28T10:28:35;7.90;;;3.17;;
75218;SDS011;63801;49.414;19.474;2022-10-28T10:30:44;7.32;;;3.10;;
75218;SDS011;63801;49.414;19.474;2022-10-28T10:32:47;8.80;;;3.40;;
75218;SDS011;63801;49.414;19.474;2022-10-28T10:34:51;6.60;;;3.10;;
75218;SDS011;63801;49.414;19.474;2022-10-28T10:36:56;6.03;;;2.70;;
75218;SDS011;63801;49.414;19.474;2022-10-28T10:38:58;5.88;;;2.88;;
75218;SDS011;63801;49.414;19.474;2022-10-28T10:41:00;7.13;;;2.63;;
75218;SDS011;63801;49.414;19.474;2022-10-28T10:45:34;7.85;;;3.03;;
75218;SDS011;63801;49.414;19.474;2022-10-28T10:47:34;5.85;;;2.75;;
75218;SDS011;63801;49.414;19.474;2022-10-28T10:49:35;5.47;;;2.78;;
75218;SDS011;63801;49.414;19.474;2022-10-28T10:51:35;5.72;;;2.95;;
75218;SDS011;63801;49.414;19.474;2022-10-28T10:53:36;10.93;;;2.97;;
75218;SDS011;63801;49.414;19.474;2022-10-28T10:55:38;6.95;;;3.10;;
75218;SDS011;63801;49.414;19.474;2022-10-28T10:57:39;4.35;;;2.30;;
75218;SDS011;63801;49.414;19.474;2022-10-28T10:59:46;4.07;;;2.60;;
75218;SDS011;63801;49.414;19.474;2022-10-28T11:01:48;8.38;;;2.70;;
75218;SDS011;63801;49.414;19.474;2022-10-28T11:03:52;4.75;;;2.47;;
75218;SDS011;63801;49.414;19.474;2022-10-28T11:05:57;5.63;;;2.85;;
75218;SDS011;63801;49.414;19.474;2022-10-28T11:07:59;5.55;;;2.83;;
75218;SDS011;63801;49.414;19.474;2022-10-28T11:10:04;12.23;;;2.83;;
75218;SDS011;63801;49.414;19.474;2022-10-28T11:12:14;4.15;;;2.17;;
75218;SDS011;63801;49.414;19.474;2022-10-28T11:14:22;6.78;;;2.67;;
75218;SDS011;63801;49.414;19.474;2022-10-28T11:16:31;4.10;;;2.40;;
75218;SDS011;63801;49.414;19.474;2022-10-28T11:18:39;8.07;;;2.58;;
75218;SDS011;63801;49.414;19.474;2022-10-28T11:20:47;6.68;;;2.33;;
75218;SDS011;63801;49.414;19.474;2022-10-28T11:29:59;6.43;;;2.10;;
75218;SDS011;63801;49.414;19.474;2022-10-28T11:32:20;9.55;;;2.45;;
75218;SDS011;63801;49.414;19.474;2022-10-28T11:39:32;8.25;;;2.65;;
75218;SDS011;63801;49.414;19.474;2022-10-28T11:41:36;8.43;;;3.17;;
75218;SDS011;63801;49.414;19.474;2022-10-28T11:43:55;4.67;;;2.40;;
75218;SDS011;63801;49.414;19.474;2022-10-28T11:50:29;6.03;;;2.20;;
75218;SDS011;63801;49.414;19.474;2022-10-28T11:57:16;10.27;;;3.65;;
75218;SDS011;63801;49.414;19.474;2022-10-28T11:59:36;9.70;;;3.20;;
75218;SDS011;63801;49.414;19.474;2022-10-28T12:02:04;6.68;;;2.10;;
75218;SDS011;63801;49.414;19.474;2022-10-28T12:23:23;5.95;;;2.70;;
75218;SDS011;63801;49.414;19.474;2022-10-28T12:25:25;11.80;;;3.17;;
75218;SDS011;63801;49.414;19.474;2022-10-28T12:27:32;7.75;;;3.10;;
75218;SDS011;63801;49.414;19.474;2022-10-28T12:29:41;6.40;;;3.58;;
75218;SDS011;63801;49.414;19.474;2022-10-28T12:31:46;9.23;;;3.30;;
75218;SDS011;63801;49.414;19.474;2022-10-28T12:33:52;8.38;;;3.25;;
75218;SDS011;63801;49.414;19.474;2022-10-28T12:38:07;9.00;;;3.22;;
75218;SDS011;63801;49.414;19.474;2022-10-28T12:43:04;4.97;;;2.60;;
75218;SDS011;63801;49.414;19.474;2022-10-28T12:45:12;6.32;;;2.80;;
75218;SDS011;63801;49.414;19.474;2022-10-28T12:51:48;7.77;;;3.07;;
75218;SDS011;63801;49.414;19.474;2022-10-28T12:53:55;4.57;;;2.90;;
75218;SDS011;63801;49.414;19.474;2022-10-28T12:56:00;7.95;;;2.58;;
75218;SDS011;63801;49.414;19.474;2022-10-28T13:00:23;6.72;;;3.30;;
75218;SDS011;63801;49.414;19.474;2022-10-28T13:02:40;4.55;;;2.55;;
75218;SDS011;63801;49.414;19.474;2022-10-28T13:04:48;6.43;;;3.28;;
75218;SDS011;63801;49.414;19.474;2022-10-28T13:07:05;7.43;;;3.20;;
75218;SDS011;63801;49.414;19.474;2022-10-28T13:11:47;6.57;;;3.42;;
75218;SDS011;63801;49.414;19.474;2022-10-28T13:16:34;8.43;;;2.67;;
75218;SDS011;63801;49.414;19.474;2022-10-28T13:28:14;7.72;;;2.75;;
75218;SDS011;63801;49.414;19.474;2022-10-28T13:30:17;7.63;;;3.05;;
75218;SDS011;63801;49.414;19.474;2022-10-28T13:32:23;5.07;;;2.72;;
75218;SDS011;63801;49.414;19.474;2022-10-28T13:34:34;8.07;;;3.25;;
75218;SDS011;63801;49.414;19.474;2022-10-28T13:36:38;7.32;;;2.80;;
75218;SDS011;63801;49.414;19.474;2022-10-28T13:38:41;8.10;;;3.00;;
75218;SDS011;63801;49.414;19.474;2022-10-28T13:42:57;5.25;;;2.97;;
75218;SDS011;63801;49.414;19.474;2022-10-28T13:44:59;7.70;;;2.60;;
75218;SDS011;63801;49.414;19.474;2022-10-28T13:47:02;6.07;;;2.70;;
75218;SDS011;63801;49.414;19.474;2022-10-28T13:51:25;6.82;;;3.40;;
75218;SDS011;63801;49.414;19.474;2022-10-28T13:57:37;6.05;;;2.85;;
75218;SDS011;63801;49.414;19.474;2022-10-28T13:59:49;13.63;;;4.25;;
75218;SDS011;63801;49.414;19.474;2022-10-28T14:01:53;9.38;;;5.18;;
75218;SDS011;63801;49.414;19.474;2022-10-28T14:03:55;7.43;;;4.55;;
75218;SDS011;63801;49.414;19.474;2022-10-28T14:05:56;7.53;;;3.25;;
75218;SDS011;63801;49.414;19.474;2022-10-28T14:07:59;6.30;;;2.72;;